Time;durP1;ratioP1;P1;durP2;ratioP2;P2;SDS_P1;SDS_P2;PMS_P1;PMS_P2;Temp;Humidity;BMP_temperature;BMP_pressure;BME280_temperature;BME280_humidity;BME280_pressure;Samples;Min_cycle;Max_cycle;Signal;HPM_P1;HPM_P2
2023/05/03 00:00:07;;;;;;;5.30;1.90;;;5.30;99.90;;;;;;5011737;28;20029;-47
2023/05/03 00:02:38;;;;;;;5.00;2.22;;;5.30;99.90;;;;;;5012232;28;20022;-50
2023/05/03 00:05:06;;;;;;;4.70;2.13;;;5.20;99.90;;;;;;5012022;28;20067;-50
2023/05/03 00:07:32;;;;;;;6.00;2.23;;;5.20;99.90;;;;;;5011924;28;20091;-48
2023/05/03 00:09:58;;;;;;;5.13;2.63;;;5.30;99.90;;;;;;5011754;28;20549;-49
2023/05/03 00:12:24;;;;;;;4.97;2.27;;;5.20;99.90;;;;;;5012214;28;20033;-49
2023/05/03 00:14:50;;;;;;;4.37;2.07;;;5.20;99.90;;;;;;5011956;28;20026;-49
2023/05/03 00:17:16;;;;;;;5.63;2.57;;;5.20;99.90;;;;;;5011997;28;20042;-47
2023/05/03 00:19:41;;;;;;;4.77;2.13;;;5.20;99.90;;;;;;5011900;28;20036;-48
2023/05/03 00:22:08;;;;;;;4.10;2.40;;;5.10;99.90;;;;;;5011610;28;20385;-50
2023/05/03 00:24:34;;;;;;;5.23;2.17;;;5.20;99.90;;;;;;5011923;28;20088;-49
2023/05/03 00:27:00;;;;;;;4.50;2.20;;;5.10;99.90;;;;;;5011913;28;20026;-50
2023/05/03 00:29:26;;;;;;;6.27;2.37;;;5.10;99.90;;;;;;5011861;28;20044;-47
2023/05/03 00:31:52;;;;;;;4.10;2.00;;;5.10;99.90;;;;;;5011473;28;20421;-52
2023/05/03 00:34:17;;;;;;;4.77;2.17;;;5.10;99.90;;;;;;5010408;28;20084;-47
2023/05/03 00:36:43;;;;;;;4.53;2.50;;;5.10;99.90;;;;;;5010288;28;20037;-52
2023/05/03 00:39:10;;;;;;;4.77;2.40;;;5.00;99.90;;;;;;5011835;28;20470;-51
2023/05/03 00:41:36;;;;;;;5.73;2.70;;;5.00;99.90;;;;;;5011308;28;20690;-48
2023/05/03 00:44:01;;;;;;;4.27;2.40;;;5.10;99.90;;;;;;5026783;28;20088;-50
2023/05/03 00:46:28;;;;;;;4.80;2.50;;;5.10;99.90;;;;;;5010195;28;20034;-46
2023/05/03 00:48:54;;;;;;;4.63;2.60;;;5.10;99.90;;;;;;5010269;28;20029;-48
2023/05/03 00:51:21;;;;;;;5.77;2.70;;;5.10;99.90;;;;;;5009653;28;20029;-50
2023/05/03 00:53:47;;;;;;;5.60;2.70;;;5.10;99.90;;;;;;5011706;28;20041;-47
2023/05/03 00:56:22;;;;;;;6.00;2.60;;;5.10;99.90;;;;;;5026595;28;20033;-49
2023/05/03 00:58:50;;;;;;;8.90;2.70;;;5.00;99.90;;;;;;5011624;28;20042;-48
2023/05/03 01:01:16;;;;;;;4.87;2.57;;;5.00;99.90;;;;;;5009092;28;20045;-49
2023/05/03 01:03:45;;;;;;;5.03;2.83;;;5.00;99.90;;;;;;5007933;28;20470;-50
2023/05/03 01:06:35;;;;;;;8.17;2.70;;;4.90;99.90;;;;;;5009193;28;20041;-53
2023/05/03 01:09:18;;;;;;;8.07;3.27;;;4.90;99.90;;;;;;5012179;28;20046;-52
2023/05/03 01:12:10;;;;;;;6.57;2.40;;;4.90;99.90;;;;;;5013403;28;20037;-49
2023/05/03 01:15:04;;;;;;;7.17;2.53;;;4.90;99.90;;;;;;5006652;28;20517;-47
2023/05/03 01:17:37;;;;;;;6.00;2.37;;;4.90;99.90;;;;;;5014406;28;20096;-49
2023/05/03 01:20:11;;;;;;;5.43;2.63;;;4.90;99.90;;;;;;5013773;28;20084;-48
2023/05/03 01:23:00;;;;;;;4.87;2.43;;;5.00;99.90;;;;;;5014187;28;20084;-48
2023/05/03 01:25:28;;;;;;;5.43;3.00;;;4.90;99.90;;;;;;5012821;28;20402;-52
2023/05/03 01:27:54;;;;;;;6.07;2.80;;;4.90;99.90;;;;;;5014040;28;20034;-48
2023/05/03 01:30:24;;;;;;;6.63;3.20;;;4.90;99.90;;;;;;5013503;28;20025;-51
2023/05/03 01:33:02;;;;;;;8.17;2.70;;;4.80;99.90;;;;;;5013970;28;20501;-51
2023/05/03 01:35:43;;;;;;;5.53;2.70;;;4.90;99.90;;;;;;5012599;28;20069;-50
2023/05/03 01:38:10;;;;;;;8.50;3.27;;;4.90;99.90;;;;;;5012611;28;20044;-50
2023/05/03 01:40:42;;;;;;;6.63;2.40;;;4.80;99.90;;;;;;5013472;28;20618;-48
2023/05/03 01:43:10;;;;;;;7.00;2.57;;;4.90;99.90;;;;;;5013781;28;20026;-47
2023/05/03 01:45:36;;;;;;;7.97;3.10;;;4.90;99.90;;;;;;5013720;28;20034;-46
2023/05/03 01:48:07;;;;;;;5.80;2.40;;;4.90;99.90;;;;;;5012517;28;20046;-47
2023/05/03 01:50:34;;;;;;;4.93;2.53;;;4.90;99.90;;;;;;5013343;28;20029;-48
2023/05/03 01:53:01;;;;;;;9.67;2.63;;;4.90;99.90;;;;;;5012445;28;20073;-49
2023/05/03 01:55:27;;;;;;;5.17;2.57;;;4.90;99.90;;;;;;5012170;28;20034;-47
2023/05/03 01:57:52;;;;;;;6.20;2.50;;;4.90;99.90;;;;;;5013540;28;20029;-49
2023/05/03 02:00:18;;;;;;;5.00;2.20;;;4.90;99.90;;;;;;5012308;28;20506;-46
2023/05/03 02:02:45;;;;;;;7.53;2.37;;;4.80;99.90;;;;;;5013595;28;20050;-46
2023/05/03 02:05:12;;;;;;;6.87;2.80;;;4.80;99.90;;;;;;5012106;28;20025;-48
2023/05/03 02:07:38;;;;;;;4.50;2.00;;;4.80;99.90;;;;;;5013435;28;20034;-46
2023/05/03 02:10:07;;;;;;;6.93;2.63;;;4.80;99.90;;;;;;5011531;28;20125;-46
2023/05/03 02:12:33;;;;;;;;;;;4.90;99.90;;;;;;5013740;28;20493;-46
2023/05/03 02:14:59;;;;;;;6.67;2.30;;;4.90;99.90;;;;;;5012072;28;19968;-46
2023/05/03 02:17:25;;;;;;;5.77;2.70;;;4.80;99.90;;;;;;5013410;28;20053;-47
2023/05/03 02:19:51;;;;;;;6.70;2.60;;;4.80;99.90;;;;;;5013213;28;20486;-46
2023/05/03 02:22:17;;;;;;;7.60;2.77;;;4.80;99.90;;;;;;5012840;28;20026;-46
2023/05/03 02:24:43;;;;;;;5.63;2.60;;;4.80;99.90;;;;;;5013373;28;20057;-46
2023/05/03 02:27:09;;;;;;;6.37;2.37;;;4.80;99.90;;;;;;5013018;28;20077;-46
2023/05/03 02:29:34;;;;;;;7.70;2.60;;;4.80;99.90;;;;;;5013087;28;20104;-46
2023/05/03 02:32:04;;;;;;;5.88;2.42;;;4.80;99.90;;;;;;5011129;28;20026;-47
2023/05/03 02:34:31;;;;;;;5.70;2.03;;;4.80;99.90;;;;;;5012840;28;20026;-46
2023/05/03 02:36:57;;;;;;;5.17;2.60;;;4.80;99.90;;;;;;5011391;28;20029;-47
2023/05/03 02:39:23;;;;;;;6.13;2.70;;;4.80;99.90;;;;;;5011450;28;20037;-50
2023/05/03 02:41:49;;;;;;;5.80;2.57;;;4.80;99.90;;;;;;5012239;28;20044;-47
2023/05/03 02:44:15;;;;;;;7.70;2.37;;;4.80;99.90;;;;;;5011447;28;20033;-46
2023/05/03 02:46:41;;;;;;;7.33;2.60;;;4.80;99.90;;;;;;5011399;28;20030;-47
2023/05/03 02:49:07;;;;;;;4.53;2.00;;;4.80;99.90;;;;;;5011228;28;20402;-46
2023/05/03 02:51:34;;;;;;;4.17;2.40;;;4.80;99.90;;;;;;5011960;28;20072;-46
2023/05/03 02:54:00;;;;;;;4.33;2.37;;;4.70;99.90;;;;;;5012533;28;20157;-48
2023/05/03 02:56:26;;;;;;;5.67;2.57;;;4.70;99.90;;;;;;5011192;28;20033;-49
2023/05/03 02:58:52;;;;;;;5.43;2.60;;;4.70;99.90;;;;;;5011142;28;20125;-46
2023/05/03 03:01:21;;;;;;;5.90;2.13;;;4.80;99.90;;;;;;5010557;28;20030;-47
2023/05/03 03:03:47;;;;;;;4.73;2.27;;;4.80;99.90;;;;;;5010889;28;20034;-46
2023/05/03 03:06:13;;;;;;;8.80;2.77;;;4.80;99.90;;;;;;5012073;28;20064;-47
2023/05/03 03:08:39;;;;;;;5.00;2.53;;;4.80;99.90;;;;;;5010849;28;20026;-48
2023/05/03 03:11:06;;;;;;;4.00;2.17;;;4.70;99.90;;;;;;5010393;28;20433;-46
2023/05/03 03:13:32;;;;;;;6.73;2.60;;;4.60;99.90;;;;;;5010741;28;20022;-47
2023/05/03 03:15:59;;;;;;;4.40;2.03;;;4.60;99.90;;;;;;5010889;28;20037;-49
2023/05/03 03:18:25;;;;;;;7.90;2.73;;;4.60;99.90;;;;;;5010614;28;20297;-48
2023/05/03 03:20:51;;;;;;;3.97;2.20;;;4.60;99.90;;;;;;5011435;28;20548;-47
2023/05/03 03:23:18;;;;;;;7.60;2.60;;;4.50;99.90;;;;;;5008768;28;20038;-47
2023/05/03 03:25:44;;;;;;;4.23;1.90;;;4.60;99.90;;;;;;5008938;28;20526;-47
2023/05/03 03:28:09;;;;;;;4.63;2.40;;;4.60;99.90;;;;;;5004853;28;20061;-50
2023/05/03 03:30:36;;;;;;;6.40;2.50;;;4.60;99.90;;;;;;5005246;28;20029;-48
2023/05/03 03:33:15;;;;;;;9.10;2.20;;;4.70;99.90;;;;;;5023912;28;20029;-46
2023/05/03 03:35:41;;;;;;;6.80;2.30;;;4.70;99.90;;;;;;5024226;28;20040;-51
2023/05/03 03:38:08;;;;;;;4.13;2.20;;;4.70;99.90;;;;;;5011697;28;20112;-46
2023/05/03 03:40:38;;;;;;;4.90;2.00;;;4.70;99.90;;;;;;5011176;28;20037;-47
2023/05/03 03:43:04;;;;;;;4.13;2.27;;;4.70;99.90;;;;;;5012390;28;20497;-46
2023/05/03 03:45:30;;;;;;;4.63;2.20;;;4.80;99.90;;;;;;5019243;28;20346;-49
2023/05/03 03:47:57;;;;;;;6.20;2.10;;;4.70;99.90;;;;;;5019028;28;20092;-47
2023/05/03 03:50:24;;;;;;;5.43;2.50;;;4.70;99.90;;;;;;5025424;28;20025;-50
2023/05/03 03:52:50;;;;;;;5.23;2.30;;;4.80;99.90;;;;;;5017227;28;20030;-51
2023/05/03 03:55:16;;;;;;;4.60;2.50;;;4.80;99.90;;;;;;5019158;28;20511;-47
2023/05/03 03:57:45;;;;;;;5.30;2.55;;;4.70;99.90;;;;;;5023618;28;20109;-47
2023/05/03 04:00:13;;;;;;;6.67;2.30;;;4.70;99.90;;;;;;5015064;28;20514;-51
2023/05/03 04:02:41;;;;;;;5.68;2.65;;;4.70;99.90;;;;;;5015469;28;20054;-47
2023/05/03 04:05:13;;;;;;;6.30;2.50;;;4.70;99.90;;;;;;5019594;28;20030;-48
2023/05/03 04:07:39;;;;;;;5.00;2.50;;;4.80;99.90;;;;;;5011170;28;20022;-46
2023/05/03 04:10:06;;;;;;;9.10;2.60;;;4.80;99.90;;;;;;5008641;28;20017;-46
2023/05/03 04:12:32;;;;;;;6.50;2.70;;;4.80;99.90;;;;;;5018923;28;20018;-48
2023/05/03 04:14:59;;;;;;;8.33;3.07;;;4.70;99.90;;;;;;5012828;28;20022;-48
2023/05/03 04:17:25;;;;;;;6.07;2.50;;;4.80;99.90;;;;;;5014646;28;20421;-51
2023/05/03 04:19:51;;;;;;;7.03;3.00;;;4.80;99.90;;;;;;5016216;28;20083;-47
2023/05/03 04:22:17;;;;;;;5.40;2.73;;;4.80;99.90;;;;;;5018535;28;20516;-48
2023/05/03 04:24:44;;;;;;;5.83;2.37;;;4.80;99.90;;;;;;5018154;28;20052;-49
2023/05/03 04:27:13;;;;;;;5.93;2.80;;;4.90;99.90;;;;;;5015406;28;20459;-51
2023/05/03 04:29:39;;;;;;;5.87;3.27;;;4.90;99.90;;;;;;5015277;28;20022;-50
2023/05/03 04:32:06;;;;;;;6.20;3.07;;;4.80;99.90;;;;;;5026543;28;20032;-48
2023/05/03 04:34:32;;;;;;;6.40;2.60;;;4.90;99.90;;;;;;5020229;28;20014;-47
2023/05/03 04:37:00;;;;;;;6.57;2.90;;;4.80;99.90;;;;;;5017082;28;20026;-47
2023/05/03 04:39:26;;;;;;;6.93;2.60;;;4.80;99.90;;;;;;5015392;28;20037;-48
2023/05/03 04:41:52;;;;;;;6.60;2.83;;;4.90;99.90;;;;;;5016388;28;20041;-49
2023/05/03 04:44:19;;;;;;;8.10;3.00;;;4.90;99.90;;;;;;5016814;28;20030;-48
2023/05/03 04:46:48;;;;;;;;;;;4.90;99.90;;;;;;5026134;28;20055;-48
2023/05/03 04:49:14;;;;;;;8.43;3.00;;;4.90;99.90;;;;;;5017832;28;19917;-47
2023/05/03 04:51:40;;;;;;;7.33;2.90;;;4.90;99.90;;;;;;5018712;28;20064;-50
2023/05/03 04:54:06;;;;;;;5.90;2.93;;;4.90;99.90;;;;;;5019368;28;20438;-51
2023/05/03 04:56:34;;;;;;;7.43;3.40;;;4.90;99.90;;;;;;5020766;28;20037;-47
2023/05/03 04:59:08;;;;;;;5.93;2.70;;;4.90;99.90;;;;;;5019177;28;20112;-46
2023/05/03 05:01:35;;;;;;;6.47;3.23;;;5.00;99.90;;;;;;5029981;28;20036;-47
2023/05/03 05:04:02;;;;;;;5.83;2.77;;;5.00;99.90;;;;;;5030602;28;20371;-47
2023/05/03 05:06:35;;;;;;;7.87;4.07;;;5.10;99.90;;;;;;5023127;28;20160;-49
2023/05/03 05:09:01;;;;;;;4.57;2.53;;;5.10;99.90;;;;;;5029366;28;20034;-52
2023/05/03 05:11:27;;;;;;;8.40;3.37;;;5.20;99.90;;;;;;5015725;28;20038;-47
2023/05/03 05:13:53;;;;;;;6.27;3.10;;;5.30;99.90;;;;;;5017768;28;20448;-53
2023/05/03 05:16:19;;;;;;;6.27;2.97;;;5.40;99.90;;;;;;5020101;28;20072;-49
2023/05/03 05:18:50;;;;;;;9.37;3.17;;;5.50;99.90;;;;;;5019526;28;20501;-53
2023/05/03 05:21:17;;;;;;;6.17;2.77;;;5.60;99.90;;;;;;5021915;28;20497;-48
2023/05/03 05:23:43;;;;;;;6.77;2.70;;;5.60;99.90;;;;;;5022924;28;20119;-47
2023/05/03 05:26:09;;;;;;;8.33;3.57;;;5.70;99.90;;;;;;5023527;28;20103;-48
2023/05/03 05:28:36;;;;;;;7.20;2.67;;;5.70;99.90;;;;;;5014161;28;20121;-50
2023/05/03 05:31:02;;;;;;;8.50;3.30;;;5.80;99.90;;;;;;5021063;28;20186;-51
2023/05/03 05:33:29;;;;;;;6.17;3.03;;;5.80;99.90;;;;;;5021721;28;20022;-49
2023/05/03 05:35:56;;;;;;;8.30;3.30;;;5.90;99.90;;;;;;5019725;28;20367;-50
2023/05/03 05:38:22;;;;;;;6.23;3.50;;;5.90;99.90;;;;;;5012890;28;20029;-51
2023/05/03 05:40:51;;;;;;;7.07;2.92;;;6.00;99.90;;;;;;5025975;28;20374;-52
2023/05/03 05:43:18;;;;;;;6.70;2.67;;;6.10;99.90;;;;;;5030001;28;20256;-49
2023/05/03 05:45:45;;;;;;;6.07;3.30;;;6.20;99.90;;;;;;5023176;28;20362;-50
2023/05/03 05:48:11;;;;;;;5.67;3.07;;;6.30;99.90;;;;;;5018123;28;20022;-53
2023/05/03 05:50:37;;;;;;;5.33;3.03;;;6.50;99.90;;;;;;5025867;28;20022;-50
2023/05/03 05:53:08;;;;;;;6.57;3.20;;;6.70;99.90;;;;;;5018329;28;20040;-49
2023/05/03 05:55:37;;;;;;;6.37;3.20;;;6.80;99.90;;;;;;5025107;28;20018;-48
2023/05/03 05:58:04;;;;;;;9.57;3.10;;;6.80;99.90;;;;;;5013135;28;20032;-49
2023/05/03 06:00:37;;;;;;;7.83;3.17;;;6.80;99.90;;;;;;5013383;28;20254;-50
2023/05/03 06:03:04;;;;;;;7.13;3.23;;;6.90;99.90;;;;;;5028981;28;20129;-50
2023/05/03 06:05:30;;;;;;;6.20;3.40;;;7.00;99.90;;;;;;5030699;28;20029;-51
2023/05/03 06:07:55;;;;;;;6.70;3.33;;;7.20;99.90;;;;;;5021101;28;20077;-48
2023/05/03 06:10:21;;;;;;;5.50;2.73;;;7.20;99.90;;;;;;5022553;28;20076;-50
2023/05/03 06:12:50;;;;;;;6.75;3.53;;;7.40;99.90;;;;;;5020180;28;20053;-49
2023/05/03 06:15:20;;;;;;;9.13;3.23;;;7.50;99.90;;;;;;5026500;28;20092;-49
2023/05/03 06:17:46;;;;;;;9.77;3.10;;;7.60;99.90;;;;;;5025606;28;20469;-48
2023/05/03 06:20:12;;;;;;;6.47;3.63;;;7.90;99.90;;;;;;5013069;28;20029;-51
2023/05/03 06:22:39;;;;;;;6.70;3.40;;;8.30;99.90;;;;;;5022372;28;20104;-49
2023/05/03 06:25:08;;;;;;;6.80;3.53;;;8.60;99.90;;;;;;5028994;28;20026;-47
2023/05/03 06:27:35;;;;;;;6.50;3.33;;;8.90;99.90;;;;;;5013714;28;20025;-47
2023/05/03 06:30:01;;;;;;;6.07;3.30;;;9.00;99.90;;;;;;5017599;28;20014;-49
2023/05/03 06:32:27;;;;;;;6.50;3.17;;;9.10;99.90;;;;;;5028399;28;20049;-48
2023/05/03 06:34:53;;;;;;;7.93;3.63;;;9.20;99.90;;;;;;5020075;28;20049;-49
2023/05/03 06:37:19;;;;;;;8.03;3.00;;;9.40;99.90;;;;;;5017339;28;20104;-47
2023/05/03 06:39:45;;;;;;;6.47;3.67;;;9.30;99.90;;;;;;5018608;28;20101;-47
2023/05/03 06:42:10;;;;;;;7.17;3.50;;;9.40;99.90;;;;;;5025874;28;20552;-48
2023/05/03 06:44:38;;;;;;;7.73;3.50;;;9.50;99.90;;;;;;5017653;28;20025;-49
2023/05/03 06:47:04;;;;;;;7.13;3.10;;;9.70;99.90;;;;;;5013717;28;20382;-47
2023/05/03 06:49:30;;;;;;;7.93;3.30;;;9.80;99.90;;;;;;5030632;28;20080;-48
2023/05/03 06:51:55;;;;;;;7.10;3.23;;;9.80;99.90;;;;;;5025305;28;20037;-48
2023/05/03 06:54:21;;;;;;;7.37;3.20;;;10.00;99.90;;;;;;5015914;28;20489;-52
2023/05/03 06:56:47;;;;;;;6.07;2.93;;;10.10;99.90;;;;;;5028582;28;20112;-48
2023/05/03 06:59:12;;;;;;;8.67;3.30;;;10.10;99.90;;;;;;5024597;28;20036;-49
2023/05/03 07:01:38;;;;;;;5.67;3.10;;;10.20;99.90;;;;;;5009881;28;20034;-51
2023/05/03 07:04:04;;;;;;;7.17;3.17;;;10.30;99.90;;;;;;5014675;28;20621;-48
2023/05/03 07:06:30;;;;;;;7.67;3.33;;;10.50;99.90;;;;;;5016412;28;20117;-48
2023/05/03 07:08:56;;;;;;;5.97;3.33;;;10.80;99.90;;;;;;5026290;28;20026;-48
2023/05/03 07:11:22;;;;;;;6.60;2.90;;;11.30;99.90;;;;;;5018163;28;20028;-53
2023/05/03 07:13:52;;;;;;;7.90;3.80;;;11.70;99.90;;;;;;5018818;28;20373;-49
2023/05/03 07:16:18;;;;;;;6.50;3.40;;;11.70;99.90;;;;;;5015771;28;20022;-48
2023/05/03 07:18:45;;;;;;;9.53;3.33;;;11.60;99.90;;;;;;5011336;28;20026;-48
2023/05/03 07:21:12;;;;;;;6.37;2.83;;;11.50;99.90;;;;;;5013770;28;20039;-53
2023/05/03 07:23:38;;;;;;;7.27;3.63;;;11.60;99.90;;;;;;5022388;28;20117;-52
2023/05/03 07:26:04;;;;;;;7.17;2.80;;;12.00;99.90;;;;;;5010070;28;20082;-52
2023/05/03 07:28:30;;;;;;;5.57;2.57;;;12.40;99.90;;;;;;5009783;28;20033;-49
2023/05/03 07:30:55;;;;;;;6.60;3.10;;;12.50;99.90;;;;;;5026965;28;20082;-50
2023/05/03 07:33:21;;;;;;;6.10;2.92;;;12.50;99.90;;;;;;5016558;28;20056;-49
2023/05/03 07:35:47;;;;;;;7.10;3.35;;;12.30;99.90;;;;;;5017976;28;20064;-49
2023/05/03 07:38:14;;;;;;;5.13;2.55;;;12.40;99.90;;;;;;5011119;28;20450;-47
2023/05/03 07:40:40;;;;;;;9.65;3.85;;;12.70;99.90;;;;;;5013328;28;20026;-49
2023/05/03 07:43:09;;;;;;;7.53;2.47;;;12.80;99.90;;;;;;5020729;28;20038;-48
2023/05/03 07:45:35;;;;;;;5.55;2.60;;;12.80;98.90;;;;;;5019818;28;20033;-52
2023/05/03 07:48:02;;;;;;;5.40;2.75;;;12.70;98.30;;;;;;5009411;28;20117;-49
2023/05/03 07:50:29;;;;;;;6.00;2.67;;;12.50;98.60;;;;;;5016020;28;20044;-47
2023/05/03 07:52:55;;;;;;;4.20;2.35;;;12.40;99.80;;;;;;5026170;28;20412;-47
2023/05/03 07:55:21;;;;;;;5.60;3.15;;;12.20;99.90;;;;;;5020503;28;20033;-50
2023/05/03 07:57:47;;;;;;;7.00;2.40;;;12.30;99.90;;;;;;5027780;28;20029;-49
2023/05/03 08:00:13;;;;;;;5.47;2.97;;;12.40;99.90;;;;;;5016156;28;20037;-50
2023/05/03 08:02:40;;;;;;;5.15;2.40;;;12.60;99.90;;;;;;5013510;28;20049;-49
2023/05/03 08:05:06;;;;;;;4.25;2.50;;;12.50;99.10;;;;;;5010196;28;20674;-48
2023/05/03 08:07:32;;;;;;;4.80;2.30;;;12.50;99.40;;;;;;5014643;28;20029;-48
2023/05/03 08:09:58;;;;;;;5.88;2.28;;;12.50;99.60;;;;;;5017732;28;20101;-48
2023/05/03 08:12:25;;;;;;;8.98;2.63;;;12.60;98.90;;;;;;5016577;28;20072;-48
2023/05/03 08:14:55;;;;;;;4.78;2.15;;;12.70;98.90;;;;;;5016708;28;20033;-50
2023/05/03 08:17:22;;;;;;;3.13;2.08;;;12.50;98.90;;;;;;5019905;28;20121;-48
2023/05/03 08:19:48;;;;;;;4.60;2.40;;;12.50;99.20;;;;;;5017116;28;20039;-50
2023/05/03 08:22:15;;;;;;;4.28;2.10;;;12.40;99.70;;;;;;5016052;28;20038;-47
2023/05/03 08:24:42;;;;;;;4.38;2.10;;;12.30;99.20;;;;;;5016414;28;20049;-49
2023/05/03 08:27:08;;;;;;;4.00;2.42;;;12.30;99.80;;;;;;5019107;28;20030;-48
2023/05/03 08:29:37;;;;;;;5.13;2.13;;;12.20;99.90;;;;;;5019444;28;20057;-49
2023/05/03 08:32:04;;;;;;;4.20;2.15;;;12.30;99.90;;;;;;5019711;28;20346;-49
2023/05/03 08:34:30;;;;;;;4.13;1.90;;;12.30;99.30;;;;;;5019740;28;20030;-49
2023/05/03 08:36:56;;;;;;;5.22;2.42;;;12.30;98.70;;;;;;5011398;28;20489;-49
2023/05/03 08:39:26;;;;;;;4.05;1.70;;;12.30;97.80;;;;;;5019709;28;20068;-53
2023/05/03 08:41:53;;;;;;;5.47;2.05;;;12.30;98.10;;;;;;5018985;28;20030;-51
2023/05/03 08:44:23;;;;;;;4.13;1.85;;;12.50;99.90;;;;;;5021541;28;20049;-49
2023/05/03 08:46:49;;;;;;;3.53;1.90;;;12.50;98.10;;;;;;5008306;28;20404;-48
2023/05/03 08:49:17;;;;;;;4.18;2.15;;;12.40;97.00;;;;;;5024230;28;20057;-48
2023/05/03 08:51:47;;;;;;;3.13;1.85;;;12.40;99.20;;;;;;5018051;28;20022;-50
2023/05/03 08:54:17;;;;;;;4.32;2.05;;;12.60;99.20;;;;;;5019164;28;20033;-48
2023/05/03 08:56:43;;;;;;;3.70;1.90;;;12.80;96.90;;;;;;5019603;28;20033;-49
2023/05/03 08:59:12;;;;;;;3.90;1.77;;;13.00;97.70;;;;;;5016800;28;20045;-47
2023/05/03 09:01:39;;;;;;;3.80;2.22;;;13.20;98.20;;;;;;5010184;28;20022;-47
2023/05/03 09:04:06;;;;;;;4.10;2.10;;;13.30;99.00;;;;;;5009866;28;20034;-48
2023/05/03 09:06:33;;;;;;;4.82;2.17;;;13.50;96.60;;;;;;5013422;28;20475;-47
2023/05/03 09:09:00;;;;;;;3.72;2.15;;;13.40;98.20;;;;;;5010040;28;20026;-48
2023/05/03 09:11:30;;;;;;;3.55;1.75;;;13.50;95.80;;;;;;5015652;28;20022;-47
2023/05/03 09:14:16;;;;;;;4.57;1.80;;;13.50;96.00;;;;;;5013310;28;20040;-48
2023/05/03 09:16:44;;;;;;;3.97;2.17;;;13.60;96.60;;;;;;5025889;28;20033;-48
2023/05/03 09:19:11;;;;;;;6.00;2.38;;;13.70;97.10;;;;;;5016788;28;21507;-48
2023/05/03 09:21:41;;;;;;;5.78;2.22;;;13.70;95.30;;;;;;5011870;28;20042;-47
2023/05/03 09:24:15;;;;;;;6.10;2.38;;;13.70;96.20;;;;;;5018987;28;20061;-48
2023/05/03 09:26:41;;;;;;;5.13;2.40;;;13.80;96.70;;;;;;5019078;28;20052;-48
2023/05/03 09:29:08;;;;;;;3.97;1.98;;;14.00;94.10;;;;;;5021453;28;20433;-48
2023/05/03 09:31:35;;;;;;;4.88;2.00;;;13.90;94.70;;;;;;5022193;28;20445;-47
2023/05/03 09:34:01;;;;;;;5.45;2.88;;;14.10;96.10;;;;;;5013540;28;20052;-48
2023/05/03 09:36:27;;;;;;;4.35;2.58;;;14.20;96.00;;;;;;5020048;28;20501;-47
2023/05/03 09:38:54;;;;;;;3.95;2.08;;;14.30;95.30;;;;;;5019503;28;20120;-47
2023/05/03 09:41:27;;;;;;;3.88;2.22;;;14.30;93.40;;;;;;5027361;28;20029;-51
2023/05/03 09:43:54;;;;;;;5.82;2.58;;;14.30;94.40;;;;;;5022514;28;20041;-48
2023/05/03 09:46:20;;;;;;;4.90;2.20;;;14.30;93.80;;;;;;5019647;28;20493;-50
2023/05/03 09:48:48;;;;;;;5.05;2.58;;;14.40;94.00;;;;;;5021460;28;20192;-48
2023/05/03 09:51:13;;;;;;;5.68;2.22;;;14.50;93.20;;;;;;5019252;28;20435;-48
2023/05/03 09:53:40;;;;;;;5.53;2.60;;;14.80;94.30;;;;;;5018140;28;20035;-50
2023/05/03 09:56:11;;;;;;;4.20;2.35;;;14.80;94.30;;;;;;5031478;28;20033;-50
2023/05/03 09:58:38;;;;;;;4.45;1.90;;;15.10;93.50;;;;;;5022553;28;20025;-48
2023/05/03 10:01:04;;;;;;;5.40;2.22;;;15.10;91.30;;;;;;5016913;28;20034;-49
2023/05/03 10:03:38;;;;;;;4.93;2.53;;;15.20;92.00;;;;;;5024070;28;20029;-50
2023/05/03 10:06:10;;;;;;;4.95;1.80;;;15.30;90.50;;;;;;5020681;28;20093;-52
2023/05/03 10:09:04;;;;;;;4.80;2.35;;;15.40;92.00;;;;;;5019147;28;20029;-49
2023/05/03 10:11:33;;;;;;;3.33;2.25;;;15.70;91.60;;;;;;5002970;28;20073;-50
2023/05/03 10:13:59;;;;;;;5.93;2.30;;;15.90;91.50;;;;;;5011650;28;20425;-48
2023/05/03 10:16:37;;;;;;;4.30;2.05;;;15.70;92.80;;;;;;5023307;28;20025;-49
2023/05/03 10:19:28;;;;;;;4.00;2.00;;;15.90;92.20;;;;;;5017677;28;20343;-51
2023/05/03 10:22:05;;;;;;;6.63;2.85;;;16.00;89.10;;;;;;5014563;28;20040;-49
2023/05/03 10:24:35;;;;;;;4.10;2.10;;;16.10;88.90;;;;;;5022570;28;20354;-47
2023/05/03 10:27:01;;;;;;;4.57;2.00;;;15.90;90.30;;;;;;5016876;28;20033;-48
2023/05/03 10:29:46;;;;;;;4.72;2.20;;;16.10;91.30;;;;;;5022221;28;20025;-47
2023/05/03 10:32:33;;;;;;;4.38;2.10;;;16.00;87.60;;;;;;5018954;28;20069;-48
2023/05/03 10:35:02;;;;;;;7.15;2.17;;;16.10;89.00;;;;;;5019057;28;20022;-48
2023/05/03 10:37:28;;;;;;;3.60;2.28;;;15.90;90.60;;;;;;5022917;28;20045;-49
2023/05/03 10:39:55;;;;;;;4.10;2.10;;;15.80;90.80;;;;;;5021439;28;20596;-50
2023/05/03 10:42:27;;;;;;;6.10;2.35;;;16.00;88.30;;;;;;5022133;28;20033;-51
2023/05/03 10:44:53;;;;;;;4.43;2.08;;;16.40;90.00;;;;;;5018718;28;20034;-53
2023/05/03 10:47:22;;;;;;;6.47;1.90;;;16.60;89.00;;;;;;5021433;28;20029;-49
2023/05/03 10:50:23;;;;;;;;;;;16.70;89.30;;;;;;5020062;28;20549;-48
2023/05/03 10:52:49;;;;;;;4.20;1.92;;;16.90;84.10;;;;;;4965698;28;19910;-47
2023/05/03 10:55:23;;;;;;;4.30;1.92;;;17.00;84.10;;;;;;5014695;28;20043;-47
2023/05/03 10:57:52;;;;;;;5.25;2.22;;;17.10;81.60;;;;;;5017756;28;20466;-49
2023/05/03 11:00:37;;;;;;;4.13;2.30;;;16.70;82.40;;;;;;5024201;28;20436;-47
2023/05/03 11:03:02;;;;;;;4.15;1.85;;;16.70;84.60;;;;;;5011312;28;20080;-48
2023/05/03 11:05:30;;;;;;;4.68;2.17;;;17.00;81.20;;;;;;5027103;28;20037;-47
2023/05/03 11:08:17;;;;;;;5.05;1.95;;;16.90;82.30;;;;;;5022003;28;20033;-47
2023/05/03 11:10:47;;;;;;;4.85;2.80;;;16.70;83.50;;;;;;5024951;28;20029;-50
2023/05/03 11:13:13;;;;;;;5.45;2.33;;;16.60;80.50;;;;;;5023488;28;20044;-48
2023/05/03 11:15:39;;;;;;;4.80;1.85;;;16.50;84.60;;;;;;5015136;28;20420;-48
2023/05/03 11:18:07;;;;;;;4.72;2.00;;;16.10;80.40;;;;;;5019801;28;20022;-48
2023/05/03 11:20:33;;;;;;;5.43;1.90;;;15.90;81.60;;;;;;5016649;28;20032;-48
2023/05/03 11:22:58;;;;;;;3.55;1.80;;;15.90;82.20;;;;;;5015303;28;20029;-48
2023/05/03 11:25:25;;;;;;;3.55;1.77;;;16.00;79.30;;;;;;5018207;28;20053;-49
2023/05/03 11:27:52;;;;;;;3.15;1.70;;;16.00;80.90;;;;;;5018242;28;20034;-51
2023/05/03 11:30:18;;;;;;;3.85;2.10;;;16.00;85.40;;;;;;5025537;28;20056;-50
2023/05/03 11:32:44;;;;;;;3.00;1.92;;;16.00;79.30;;;;;;5025113;28;20092;-50
2023/05/03 11:35:12;;;;;;;5.95;1.80;;;15.90;79.70;;;;;;5021527;28;20057;-51
2023/05/03 11:37:38;;;;;;;4.30;2.03;;;15.80;81.20;;;;;;5029990;28;20064;-47
2023/05/03 11:40:07;;;;;;;9.13;5.13;;;15.70;80.60;;;;;;5028178;28;20032;-51
2023/05/03 11:42:33;;;;;;;5.73;2.40;;;15.90;83.70;;;;;;5022049;28;20385;-48
2023/05/03 11:45:00;;;;;;;4.50;2.25;;;15.90;81.00;;;;;;5012844;28;20436;-48
2023/05/03 11:47:26;;;;;;;6.32;2.20;;;15.70;84.60;;;;;;5021716;28;20044;-48
2023/05/03 11:49:56;;;;;;;5.72;2.10;;;15.70;86.60;;;;;;5014377;28;20034;-48
2023/05/03 11:52:26;;;;;;;10.48;3.00;;;15.80;84.50;;;;;;5016118;28;20017;-49
2023/05/03 11:54:52;;;;;;;3.33;1.63;;;16.00;80.40;;;;;;5020484;28;20370;-50
2023/05/03 11:57:18;;;;;;;4.25;2.10;;;16.10;77.80;;;;;;5025962;28;20033;-47
2023/05/03 11:59:45;;;;;;;4.90;2.17;;;16.00;78.50;;;;;;5017131;28;20025;-47
2023/05/03 12:02:13;;;;;;;9.35;5.18;;;16.00;82.60;;;;;;5016836;28;20030;-51
2023/05/03 12:04:40;;;;;;;6.70;3.15;;;16.20;83.00;;;;;;5012237;28;20545;-50
2023/05/03 12:07:07;;;;;;;3.72;2.10;;;16.10;83.80;;;;;;5017480;28;20033;-51
2023/05/03 12:09:34;;;;;;;4.53;2.25;;;15.90;78.70;;;;;;5016724;28;20017;-51
2023/05/03 12:12:01;;;;;;;5.22;2.28;;;15.90;83.20;;;;;;5016393;28;20033;-49
2023/05/03 12:14:27;;;;;;;3.40;1.80;;;15.90;81.30;;;;;;5020152;28;20095;-47
2023/05/03 12:16:55;;;;;;;3.30;1.73;;;15.90;80.20;;;;;;5021023;28;20037;-50
2023/05/03 12:19:30;;;;;;;3.53;1.83;;;16.10;81.90;;;;;;5019282;28;20060;-50
2023/05/03 12:21:56;;;;;;;4.68;2.00;;;16.10;86.40;;;;;;5016110;28;20054;-47
2023/05/03 12:24:22;;;;;;;4.00;2.08;;;16.10;83.90;;;;;;5016556;28;20044;-47
2023/05/03 12:26:48;;;;;;;5.20;2.13;;;16.20;80.20;;;;;;5022927;28;20041;-48
2023/05/03 12:29:15;;;;;;;6.45;2.38;;;16.10;82.10;;;;;;5017864;28;20087;-48
2023/05/03 12:31:41;;;;;;;4.65;2.45;;;16.20;80.50;;;;;;5016243;28;20022;-49
2023/05/03 12:34:07;;;;;;;3.75;2.00;;;16.10;81.00;;;;;;5017263;28;20442;-48
2023/05/03 12:36:33;;;;;;;4.68;2.00;;;16.10;77.60;;;;;;5019855;28;20026;-48
2023/05/03 12:39:02;;;;;;;3.85;2.33;;;16.10;79.80;;;;;;5011831;28;20396;-48
2023/05/03 12:41:30;;;;;;;;;;;16.00;75.70;;;;;;5008528;28;20029;-48
2023/05/03 12:44:01;;;;;;;6.55;2.05;;;16.00;76.50;;;;;;5020424;28;20357;-48
2023/05/03 12:46:27;;;;;;;4.05;1.88;;;16.00;75.20;;;;;;5016667;28;20056;-47
2023/05/03 12:48:53;;;;;;;4.97;2.05;;;16.10;77.10;;;;;;5023059;28;20436;-51
2023/05/03 12:51:19;;;;;;;5.10;2.00;;;16.20;78.00;;;;;;5019324;28;20056;-49
2023/05/03 12:53:46;;;;;;;4.25;2.10;;;16.30;76.00;;;;;;5013996;28;20057;-49
2023/05/03 12:56:12;;;;;;;4.18;2.10;;;16.40;73.10;;;;;;5016554;28;20434;-47